Monte Buey, Argentina
Current Conditions -  °F | °C
As of 8:00 AM on Wednesday 26 Nov 2014 (Local Time) from SAAR Reporting Station
Light Rain Light Rain  
Wind Chill: 63°   Ceiling: 5000
Heat Index: 63°   Visibility: 6mi
Dew Point: 57°   Wind: 2mph
Humidity: 82%   Direction: 140°SE
Pressure: 29.97"   Gusts: NA
Location:  32.92°S, 62.45°W
Report Text: SAAR 261100Z 14002KT 9000 -RA SCT025 OVC050 17/14 Q1015
Loading
Personal Weather Stations






























Interactive Weather Map New forecast layout! Learn more

10-Day Weather Forecast

Advertisements
Track Severe Weather on mobile